Time;durP1;ratioP1;P1;durP2;ratioP2;P2;SDS_P1;SDS_P2;PMS_P1;PMS_P2;Temp;Humidity;BMP_temperature;BMP_pressure;BME280_temperature;BME280_humidity;BME280_pressure;Samples;Min_cycle;Max_cycle;Signal;HPM_P1;HPM_P2
2022/04/21 00:02:23;;;;;;;;;;;11.60;68.90;;;;;;5054338;28;19916;-73
2022/04/21 00:04:49;;;;;;;;;;;11.60;69.00;;;;;;5053189;28;20318;-73
2022/04/21 00:07:14;;;;;;;;;;;11.60;69.40;;;;;;5054704;28;19897;-73
2022/04/21 00:09:40;;;;;;;;;;;11.50;70.00;;;;;;5054203;28;20386;-74
2022/04/21 00:12:05;;;;;;;;;;;11.40;70.30;;;;;;5054103;28;20358;-74
2022/04/21 00:14:31;;;;;;;;;;;11.40;70.60;;;;;;5053993;28;19909;-73
2022/04/21 00:16:56;;;;;;;;;;;11.40;71.00;;;;;;5054293;28;20426;-72
2022/04/21 00:19:22;;;;;;;;;;;11.40;71.30;;;;;;5054518;28;19900;-73
2022/04/21 00:24:32;;;;;;;;;;;11.30;71.20;;;;;;5053951;28;20365;-73
2022/04/21 00:26:57;;;;;;;;;;;11.30;71.90;;;;;;5054039;28;20381;-73
2022/04/21 00:29:23;;;;;;;;;;;11.20;72.40;;;;;;5053795;28;19913;-72
2022/04/21 00:31:49;;;;;;;;;;;11.20;72.70;;;;;;5053870;28;20368;-72
2022/04/21 00:34:14;;;;;;;;;;;11.10;73.10;;;;;;5054287;28;19948;-73
2022/04/21 00:36:40;;;;;;;;;;;11.10;73.10;;;;;;5053795;28;19963;-74
2022/04/21 00:39:05;;;;;;;;;;;11.00;73.50;;;;;;5053665;28;20293;-73
2022/04/21 00:41:31;;;;;;;;;;;11.00;74.10;;;;;;5053861;28;19908;-73
2022/04/21 00:43:56;;;;;;;;;;;10.90;74.40;;;;;;5053495;28;20363;-73
2022/04/21 00:46:22;;;;;;;;;;;10.90;75.10;;;;;;5052790;28;20279;-74
2022/04/21 00:48:48;;;;;;;;;;;10.90;74.90;;;;;;5052604;28;19909;-75
2022/04/21 00:51:14;;;;;;;;;;;10.90;75.20;;;;;;5053026;28;19912;-73
2022/04/21 00:53:39;;;;;;;;;;;10.80;75.30;;;;;;5053475;28;19919;-74
2022/04/21 00:56:05;;;;;;;;;;;10.80;75.60;;;;;;5053472;28;19935;-74
2022/04/21 00:58:31;;;;;;;;;;;10.80;75.30;;;;;;5053742;28;19900;-73
2022/04/21 01:00:57;;;;;;;;;;;10.80;75.50;;;;;;5053363;28;19970;-74
2022/04/21 01:03:22;;;;;;;;;;;10.80;75.70;;;;;;5053110;28;19912;-73
2022/04/21 01:05:49;;;;;;;;;;;10.80;75.80;;;;;;5053191;28;20445;-74
2022/04/21 01:08:14;;;;;;;;;;;10.80;76.10;;;;;;5052042;28;20250;-74
2022/04/21 01:10:42;;;;;;;;;;;10.70;76.20;;;;;;5053437;28;19904;-74
2022/04/21 01:13:09;;;;;;;;;;;10.70;76.40;;;;;;5052938;28;19909;-73
2022/04/21 01:15:35;;;;;;;;;;;10.70;76.80;;;;;;5053056;28;19909;-73
2022/04/21 01:18:01;;;;;;;;;;;10.70;76.70;;;;;;5052970;28;20250;-73
2022/04/21 01:20:29;;;;;;;;;;;10.60;76.70;;;;;;5051923;28;19908;-74
2022/04/21 01:22:55;;;;;;;;;;;10.60;77.30;;;;;;5052117;28;19974;-73
2022/04/21 01:25:21;;;;;;;;;;;10.50;77.70;;;;;;5053154;28;19908;-74
2022/04/21 01:27:47;;;;;;;;;;;10.50;77.20;;;;;;5052949;28;19920;-74
2022/04/21 01:30:13;;;;;;;;;;;10.50;77.50;;;;;;5052713;28;19913;-74
2022/04/21 01:32:42;;;;;;;;;;;10.40;78.10;;;;;;5051833;28;19996;-74
2022/04/21 01:35:08;;;;;;;;;;;10.40;78.00;;;;;;5052440;28;19950;-74
2022/04/21 01:43:16;;;;;;;;;;;10.30;78.60;;;;;;5029416;28;19916;-74
2022/04/21 01:45:43;;;;;;;;;;;10.40;78.50;;;;;;5052371;28;19912;-74
2022/04/21 01:48:08;;;;;;;;;;;10.30;78.60;;;;;;5052655;28;19908;-72
2022/04/21 01:50:34;;;;;;;;;;;10.20;78.60;;;;;;5052362;28;19923;-74
2022/04/21 01:52:59;;;;;;;;;;;10.20;78.90;;;;;;5051243;28;19904;-73
2022/04/21 01:55:25;;;;;;;;;;;10.10;79.30;;;;;;5052653;28;20506;-74
2022/04/21 01:57:51;;;;;;;;;;;10.10;79.50;;;;;;5052287;28;20334;-73
2022/04/21 02:00:17;;;;;;;;;;;10.10;79.40;;;;;;5052239;28;20011;-74
2022/04/21 02:02:42;;;;;;;;;;;10.10;79.90;;;;;;5051345;28;19923;-73
2022/04/21 02:05:08;;;;;;;;;;;10.10;79.90;;;;;;5051927;28;19916;-73
2022/04/21 02:07:33;;;;;;;;;;;10.00;79.90;;;;;;5051392;28;19908;-74
2022/04/21 02:09:59;;;;;;;;;;;10.00;80.40;;;;;;5050967;28;19915;-75
2022/04/21 02:12:24;;;;;;;;;;;9.90;81.80;;;;;;5051889;28;19920;-73
2022/04/21 02:14:51;;;;;;;;;;;9.90;82.00;;;;;;5052120;28;19909;-73
2022/04/21 02:17:17;;;;;;;;;;;9.90;82.00;;;;;;5050807;28;20258;-74
2022/04/21 02:19:43;;;;;;;;;;;9.90;81.90;;;;;;5052325;28;19905;-74
2022/04/21 02:22:08;;;;;;;;;;;9.90;82.30;;;;;;5051912;28;19917;-74
2022/04/21 02:24:34;;;;;;;;;;;9.80;82.30;;;;;;5051789;28;19927;-75
2022/04/21 02:26:59;;;;;;;;;;;9.80;82.20;;;;;;5050855;28;19920;-74
2022/04/21 02:29:25;;;;;;;;;;;9.90;82.30;;;;;;5051702;28;19962;-74
2022/04/21 02:31:50;;;;;;;;;;;9.80;82.60;;;;;;5051760;28;19905;-73
2022/04/21 02:34:16;;;;;;;;;;;9.80;82.70;;;;;;5052179;28;19905;-73
2022/04/21 02:36:41;;;;;;;;;;;9.70;82.90;;;;;;5050475;28;19908;-74
2022/04/21 02:39:07;;;;;;;;;;;9.70;83.00;;;;;;5051512;28;20293;-74
2022/04/21 02:41:32;;;;;;;;;;;9.80;82.60;;;;;;5051585;28;19912;-74
2022/04/21 02:43:59;;;;;;;;;;;9.80;82.90;;;;;;5051463;28;19917;-74
2022/04/21 02:46:27;;;;;;;;;;;9.80;82.80;;;;;;5052055;28;20358;-74
2022/04/21 02:48:53;;;;;;;;;;;9.70;83.20;;;;;;5051610;28;20328;-75
2022/04/21 02:51:19;;;;;;;;;;;9.70;83.40;;;;;;5051643;28;19913;-74
2022/04/21 02:59:20;;;;;;;;;;;9.50;84.30;;;;;;5051369;28;19919;-74
2022/04/21 03:01:45;;;;;;;;;;;9.60;84.20;;;;;;5051783;28;19904;-73
2022/04/21 03:04:11;;;;;;;;;;;9.60;84.40;;;;;;5051254;28;19971;-74
2022/04/21 03:06:36;;;;;;;;;;;9.60;84.10;;;;;;5051551;28;19920;-73
2022/04/21 03:09:02;;;;;;;;;;;9.50;84.70;;;;;;5051362;28;19963;-74
2022/04/21 03:11:31;;;;;;;;;;;9.50;84.30;;;;;;5051197;28;20317;-74
2022/04/21 03:13:56;;;;;;;;;;;9.50;84.60;;;;;;5051534;28;19951;-73
2022/04/21 03:16:22;;;;;;;;;;;9.50;85.00;;;;;;5055719;28;19947;-74
2022/04/21 03:18:47;;;;;;;;;;;9.50;84.50;;;;;;5055403;28;19908;-73
2022/04/21 03:24:21;;;;;;;;;;;9.50;84.30;;;;;;5055131;28;19951;-73
2022/04/21 03:26:52;;;;;;;;;;;9.50;84.40;;;;;;5054876;28;19915;-73
2022/04/21 03:29:17;;;;;;;;;;;9.50;84.40;;;;;;5054879;28;20285;-73
2022/04/21 03:31:44;;;;;;;;;;;9.40;84.50;;;;;;5055421;28;19909;-73
2022/04/21 03:34:13;;;;;;;;;;;9.40;84.70;;;;;;5054781;28;20265;-74
2022/04/21 03:36:47;;;;;;;;;;;9.30;84.70;;;;;;5054991;28;20366;-73
2022/04/21 03:39:12;;;;;;;;;;;9.30;85.00;;;;;;5055084;28;19924;-74
2022/04/21 03:41:38;;;;;;;;;;;9.20;85.20;;;;;;5053756;28;19912;-73
2022/04/21 03:44:04;;;;;;;;;;;9.20;85.60;;;;;;5053580;28;19922;-74
2022/04/21 03:46:31;;;;;;;;;;;9.10;85.70;;;;;;5055124;28;19991;-74
2022/04/21 03:48:56;;;;;;;;;;;9.20;85.30;;;;;;5055020;28;19963;-74
2022/04/21 03:51:22;;;;;;;;;;;9.10;85.50;;;;;;5054598;28;19912;-74
2022/04/21 03:53:47;;;;;;;;;;;9.10;85.70;;;;;;5054472;28;19909;-74
2022/04/21 03:56:22;;;;;;;;;;;9.10;85.70;;;;;;5054277;28;20003;-74
2022/04/21 03:58:48;;;;;;;;;;;9.00;85.70;;;;;;5054411;28;19905;-73
2022/04/21 04:01:23;;;;;;;;;;;9.00;86.20;;;;;;5054761;28;19915;-73
2022/04/21 04:03:48;;;;;;;;;;;8.90;86.00;;;;;;5054393;28;19925;-73
2022/04/21 04:12:12;;;;;;;;;;;8.90;86.10;;;;;;5012258;28;20352;-74
2022/04/21 04:14:38;;;;;;;;;;;8.90;86.30;;;;;;5017673;28;19965;-73
2022/04/21 04:17:08;;;;;;;;;;;8.90;86.20;;;;;;5054246;28;19913;-73
2022/04/21 04:19:34;;;;;;;;;;;8.90;86.20;;;;;;5053481;28;19904;-74
2022/04/21 04:22:00;;;;;;;;;;;9.00;86.20;;;;;;5054044;28;19922;-73
2022/04/21 04:24:26;;;;;;;;;;;9.00;86.20;;;;;;5053901;28;19920;-73
2022/04/21 04:26:51;;;;;;;;;;;9.00;86.20;;;;;;5052929;28;19958;-73
2022/04/21 04:29:22;;;;;;;;;;;9.00;86.20;;;;;;5052918;28;19909;-73
2022/04/21 04:31:54;;;;;;;;;;;9.10;86.20;;;;;;5053931;28;20297;-72
2022/04/21 04:34:20;;;;;;;;;;;9.10;86.00;;;;;;5054223;28;19940;-74
2022/04/21 04:36:45;;;;;;;;;;;9.10;86.00;;;;;;5053705;28;19959;-74
2022/04/21 04:39:12;;;;;;;;;;;9.10;85.90;;;;;;5053788;28;19921;-73
2022/04/21 04:44:21;;;;;;;;;;;9.20;85.70;;;;;;5053873;28;19923;-73
2022/04/21 04:46:46;;;;;;;;;;;9.20;85.60;;;;;;5053586;28;19905;-72
2022/04/21 04:49:12;;;;;;;;;;;9.10;85.70;;;;;;5054027;28;19928;-74
2022/04/21 04:51:41;;;;;;;;;;;9.10;85.80;;;;;;5053496;28;19909;-74
2022/04/21 04:54:07;;;;;;;;;;;9.10;85.70;;;;;;5053371;28;19915;-74
2022/04/21 04:56:33;;;;;;;;;;;9.10;85.70;;;;;;5052487;28;19912;-74
2022/04/21 04:58:58;;;;;;;;;;;9.10;85.90;;;;;;5052276;28;19904;-74
2022/04/21 05:01:31;;;;;;;;;;;9.10;85.80;;;;;;5053728;28;19916;-74
2022/04/21 05:04:06;;;;;;;;;;;9.20;85.70;;;;;;5053278;28;19973;-74
2022/04/21 05:06:35;;;;;;;;;;;9.10;85.70;;;;;;5053208;28;19909;-74
2022/04/21 05:09:01;;;;;;;;;;;9.10;85.70;;;;;;5052065;28;19908;-74
2022/04/21 05:11:26;;;;;;;;;;;9.10;85.70;;;;;;5051995;28;19920;-74
2022/04/21 05:13:52;;;;;;;;;;;9.20;85.80;;;;;;5051839;28;19919;-73
2022/04/21 05:16:23;;;;;;;;;;;9.20;85.90;;;;;;5053579;28;19912;-74
2022/04/21 05:18:49;;;;;;;;;;;9.10;85.80;;;;;;5052918;28;19912;-74
2022/04/21 05:21:24;;;;;;;;;;;9.20;85.80;;;;;;5052978;28;19920;-74
2022/04/21 05:23:54;;;;;;;;;;;9.20;85.50;;;;;;5052785;28;19913;-74
2022/04/21 05:26:26;;;;;;;;;;;9.30;85.50;;;;;;5052384;28;19944;-74
2022/04/21 05:28:52;;;;;;;;;;;9.20;85.60;;;;;;5052630;28;20208;-74
2022/04/21 05:31:21;;;;;;;;;;;9.30;85.70;;;;;;5052954;28;19943;-74
2022/04/21 05:33:47;;;;;;;;;;;9.30;85.50;;;;;;5052631;28;19908;-74
2022/04/21 05:36:28;;;;;;;;;;;9.30;86.00;;;;;;5052422;28;20349;-73
2022/04/21 05:38:54;;;;;;;;;;;9.30;85.50;;;;;;5051080;28;19964;-74
2022/04/21 05:41:19;;;;;;;;;;;9.30;85.30;;;;;;5052576;28;19936;-73
2022/04/21 05:43:46;;;;;;;;;;;9.40;85.40;;;;;;5052676;28;19986;-74
2022/04/21 05:46:34;;;;;;;;;;;9.40;85.40;;;;;;5052514;28;19939;-73
2022/04/21 05:49:00;;;;;;;;;;;9.50;85.00;;;;;;5052465;28;20046;-74
2022/04/21 05:51:26;;;;;;;;;;;9.50;85.00;;;;;;5051202;28;20003;-74
2022/04/21 05:53:52;;;;;;;;;;;9.70;84.80;;;;;;5051116;28;19908;-75
2022/04/21 05:56:20;;;;;;;;;;;9.60;84.80;;;;;;5052014;28;20323;-75
2022/04/21 05:58:46;;;;;;;;;;;9.70;84.80;;;;;;5052450;28;19905;-74
2022/04/21 06:01:31;;;;;;;;;;;9.70;84.80;;;;;;5052050;28;19908;-72
2022/04/21 06:03:56;;;;;;;;;;;9.70;84.30;;;;;;5051873;28;19913;-74
2022/04/21 06:06:28;;;;;;;;;;;9.70;84.50;;;;;;5051903;28;19924;-74
2022/04/21 06:08:53;;;;;;;;;;;9.80;84.40;;;;;;5051792;28;20007;-75
2022/04/21 06:11:33;;;;;;;;;;;9.70;84.50;;;;;;5051892;28;20055;-74
2022/04/21 06:13:58;;;;;;;;;;;9.70;84.30;;;;;;5051596;28;19912;-74
2022/04/21 06:16:26;;;;;;;;;;;9.60;84.50;;;;;;5052130;28;19991;-74
2022/04/21 06:18:52;;;;;;;;;;;9.70;84.80;;;;;;5051624;28;20517;-75
2022/04/21 06:21:30;;;;;;;;;;;9.70;84.60;;;;;;5051748;28;19969;-75
2022/04/21 06:23:55;;;;;;;;;;;9.60;84.60;;;;;;5050671;28;19931;-75
2022/04/21 06:26:27;;;;;;;;;;;9.60;84.60;;;;;;5051583;28;19908;-75
2022/04/21 06:28:57;;;;;;;;;;;9.60;84.60;;;;;;5051401;28;19924;-74
2022/04/21 06:31:22;;;;;;;;;;;9.60;84.80;;;;;;5050947;28;19915;-74
2022/04/21 06:33:48;;;;;;;;;;;9.70;84.80;;;;;;5051329;28;19913;-74
2022/04/21 06:36:19;;;;;;;;;;;9.70;84.90;;;;;;5051148;28;20321;-74
2022/04/21 06:38:45;;;;;;;;;;;9.70;84.90;;;;;;5051046;28;19927;-75
2022/04/21 06:41:20;;;;;;;;;;;9.80;85.50;;;;;;5051277;28;20250;-75
2022/04/21 06:49:14;;;;;;;;;;;10.00;83.30;;;;;;5050899;28;20342;-74
2022/04/21 06:51:40;;;;;;;;;;;10.00;83.10;;;;;;5051157;28;19909;-74
2022/04/21 06:54:06;;;;;;;;;;;10.00;82.90;;;;;;5051142;28;19940;-74
2022/04/21 06:56:32;;;;;;;;;;;10.00;82.90;;;;;;5051196;28;20239;-74
2022/04/21 06:58:57;;;;;;;;;;;10.00;83.00;;;;;;5050462;28;19962;-74
2022/04/21 07:01:26;;;;;;;;;;;10.00;83.10;;;;;;5051693;28;19905;-74
2022/04/21 07:03:51;;;;;;;;;;;10.10;83.10;;;;;;5051094;28;19913;-75
2022/04/21 07:06:23;;;;;;;;;;;10.20;83.00;;;;;;5049969;28;20047;-74
2022/04/21 07:08:49;;;;;;;;;;;10.20;82.70;;;;;;5051050;28;19912;-74
2022/04/21 07:11:30;;;;;;;;;;;10.20;82.50;;;;;;5049770;28;19913;-75
2022/04/21 07:13:56;;;;;;;;;;;10.20;82.30;;;;;;5051122;28;19905;-73
2022/04/21 07:16:22;;;;;;;;;;;10.30;82.00;;;;;;5050378;28;19916;-73
2022/04/21 07:18:48;;;;;;;;;;;10.30;81.90;;;;;;5050920;28;19909;-74
2022/04/21 07:21:19;;;;;;;;;;;10.30;81.80;;;;;;5049798;28;20211;-75
2022/04/21 07:23:45;;;;;;;;;;;10.30;81.70;;;;;;5049825;28;20348;-74
2022/04/21 07:26:22;;;;;;;;;;;10.20;82.00;;;;;;5050805;28;19995;-74
2022/04/21 07:28:48;;;;;;;;;;;10.30;82.00;;;;;;5050933;28;20334;-73
2022/04/21 07:31:16;;;;;;;;;;;10.40;81.80;;;;;;5051293;28;20029;-74
2022/04/21 07:33:42;;;;;;;;;;;10.40;81.90;;;;;;5049962;28;19913;-73
2022/04/21 07:36:26;;;;;;;;;;;10.40;81.80;;;;;;5050709;28;19920;-75
2022/04/21 07:38:52;;;;;;;;;;;10.50;81.70;;;;;;5049680;28;20366;-75
2022/04/21 07:41:26;;;;;;;;;;;10.60;81.70;;;;;;5050910;28;19943;-74
2022/04/21 07:43:52;;;;;;;;;;;10.60;81.70;;;;;;5050722;28;20007;-74
2022/04/21 07:46:26;;;;;;;;;;;10.70;81.70;;;;;;5051207;28;19992;-74
2022/04/21 07:51:36;;;;;;;;;;;10.90;81.40;;;;;;5050730;28;20254;-73
2022/04/21 07:54:01;;;;;;;;;;;11.00;81.30;;;;;;5050609;28;19909;-75
2022/04/21 07:56:28;;;;;;;;;;;11.10;81.40;;;;;;5050897;28;20341;-74
2022/04/21 07:58:53;;;;;;;;;;;11.30;80.10;;;;;;5050690;28;19913;-74
2022/04/21 08:01:25;;;;;;;;;;;11.50;79.60;;;;;;5051767;28;19907;-74
2022/04/21 08:03:51;;;;;;;;;;;11.60;79.10;;;;;;5054277;28;19956;-73
2022/04/21 08:06:25;;;;;;;;;;;11.60;78.50;;;;;;5054427;28;19948;-73
2022/04/21 08:08:51;;;;;;;;;;;11.80;78.50;;;;;;5054018;28;19912;-74
2022/04/21 08:11:25;;;;;;;;;;;11.90;78.10;;;;;;5052840;28;20352;-74
2022/04/21 08:13:51;;;;;;;;;;;11.90;77.80;;;;;;5054237;28;19904;-73
2022/04/21 08:16:26;;;;;;;;;;;11.90;77.50;;;;;;5054509;28;19951;-74
2022/04/21 08:18:52;;;;;;;;;;;12.00;77.50;;;;;;5054067;28;19966;-74
2022/04/21 08:21:21;;;;;;;;;;;12.10;77.40;;;;;;5052800;28;19941;-74
2022/04/21 08:23:47;;;;;;;;;;;12.40;77.10;;;;;;5054029;28;19944;-74
2022/04/21 08:34:43;;;;;;;;;;;18.00;64.50;;;;;;5054392;28;19915;-76
2022/04/21 08:37:08;;;;;;;;;;;18.90;60.60;;;;;;5052562;28;19924;-75
2022/04/21 08:39:34;;;;;;;;;;;19.70;58.50;;;;;;5053679;28;19908;-74
2022/04/21 08:42:10;;;;;;;;;;;20.50;56.40;;;;;;5052551;28;20291;-76
2022/04/21 08:44:39;;;;;;;;;;;21.10;54.60;;;;;;5053336;28;19912;-76
2022/04/21 08:47:05;;;;;;;;;;;21.50;53.10;;;;;;5052401;28;20346;-76
2022/04/21 08:49:32;;;;;;;;;;;21.10;52.10;;;;;;5053732;28;19912;-76
2022/04/21 08:51:58;;;;;;;;;;;21.10;52.50;;;;;;5053477;28;20250;-76
2022/04/21 08:54:24;;;;;;;;;;;21.30;52.00;;;;;;5053174;28;19966;-76
2022/04/21 08:56:50;;;;;;;;;;;22.30;51.30;;;;;;5052463;28;19913;-75
2022/04/21 08:59:16;;;;;;;;;;;22.70;49.40;;;;;;5053210;28;19915;-76
2022/04/21 09:01:42;;;;;;;;;;;22.10;48.90;;;;;;5053659;28;19940;-75
2022/04/21 09:04:07;;;;;;;;;;;21.80;49.50;;;;;;5052426;28;19959;-75
2022/04/21 09:06:36;;;;;;;;;;;21.60;49.60;;;;;;5053247;28;20016;-75
2022/04/21 09:09:21;;;;;;;;;;;21.10;50.10;;;;;;5053114;28;19916;-75
2022/04/21 09:11:50;;;;;;;;;;;20.40;50.60;;;;;;5052640;28;19908;-75
2022/04/21 09:14:16;;;;;;;;;;;19.70;51.90;;;;;;5053029;28;19992;-74
2022/04/21 09:16:42;;;;;;;;;;;19.60;52.50;;;;;;5053771;28;19905;-74
2022/04/21 09:19:08;;;;;;;;;;;19.50;52.70;;;;;;5053027;28;20394;-75
2022/04/21 09:21:37;;;;;;;;;;;19.30;53.10;;;;;;5052741;28;20274;-74
2022/04/21 09:24:18;;;;;;;;;;;20.10;52.70;;;;;;5052611;28;19912;-75
2022/04/21 09:26:46;;;;;;;;;;;20.40;52.00;;;;;;5051617;28;20361;-76
2022/04/21 09:29:21;;;;;;;;;;;20.60;51.80;;;;;;5052788;28;19916;-75
2022/04/21 09:31:46;;;;;;;;;;;21.20;51.00;;;;;;5053029;28;19905;-75
2022/04/21 09:34:12;;;;;;;;;;;21.60;50.50;;;;;;5052567;28;20024;-75
2022/04/21 09:36:38;;;;;;;;;;;20.90;50.50;;;;;;5051515;28;19943;-75
2022/04/21 09:39:03;;;;;;;;;;;20.90;50.80;;;;;;5052257;28;20422;-74
2022/04/21 09:41:35;;;;;;;;;;;20.10;50.80;;;;;;5051789;28;19913;-76
2022/04/21 09:46:51;;;;;;;;;;;20.50;51.10;;;;;;5052480;28;19915;-75
2022/04/21 09:49:32;;;;;;;;;;;20.70;50.90;;;;;;5052750;28;19904;-74
2022/04/21 09:51:57;;;;;;;;;;;20.60;50.80;;;;;;5051119;28;19909;-74
2022/04/21 09:54:27;;;;;;;;;;;20.60;50.50;;;;;;5052125;28;20006;-76
2022/04/21 09:56:53;;;;;;;;;;;20.50;51.00;;;;;;5052140;28;19912;-76
2022/04/21 09:59:19;;;;;;;;;;;20.30;51.10;;;;;;5052029;28;19943;-75
2022/04/21 10:01:44;;;;;;;;;;;19.90;51.50;;;;;;5052536;28;20003;-75
2022/04/21 10:04:13;;;;;;;;;;;19.80;51.90;;;;;;5051987;28;20004;-75
2022/04/21 10:06:39;;;;;;;;;;;19.70;52.10;;;;;;5051904;28;19984;-75
2022/04/21 10:09:05;;;;;;;;;;;19.50;52.30;;;;;;5050460;28;19913;-75
2022/04/21 10:11:31;;;;;;;;;;;19.30;52.70;;;;;;5050731;28;19991;-75
2022/04/21 10:13:56;;;;;;;;;;;19.20;52.90;;;;;;5051778;28;19990;-74
2022/04/21 10:16:23;;;;;;;;;;;19.40;53.20;;;;;;5052369;28;19912;-75
2022/04/21 10:18:50;;;;;;;;;;;19.30;53.40;;;;;;5051776;28;19948;-75
2022/04/21 10:21:34;;;;;;;;;;;19.70;53.10;;;;;;5050680;28;19909;-76
2022/04/21 10:24:00;;;;;;;;;;;19.70;52.60;;;;;;5050846;28;20008;-76
2022/04/21 10:26:35;;;;;;;;;;;19.60;52.90;;;;;;5051558;28;20000;-75
2022/04/21 10:29:09;;;;;;;;;;;19.70;53.20;;;;;;5051637;28;19905;-74
2022/04/21 10:31:38;;;;;;;;;;;19.80;53.20;;;;;;5051777;28;19905;-74
2022/04/21 10:34:07;;;;;;;;;;;19.90;52.80;;;;;;5050382;28;19912;-74
2022/04/21 10:36:33;;;;;;;;;;;19.80;52.90;;;;;;5051359;28;19919;-75
2022/04/21 10:39:22;;;;;;;;;;;19.50;52.90;;;;;;5050294;28;19999;-75
2022/04/21 10:42:04;;;;;;;;;;;19.30;53.60;;;;;;5045923;28;19978;-75
2022/04/21 10:44:30;;;;;;;;;;;18.80;54.10;;;;;;5050800;28;19913;-75
2022/04/21 10:47:14;;;;;;;;;;;18.20;54.80;;;;;;5051239;28;19932;-75
2022/04/21 10:49:53;;;;;;;;;;;18.10;55.50;;;;;;5050661;28;19962;-75
2022/04/21 10:57:41;;;;;;;;;;;17.50;56.80;;;;;;5051071;28;20282;-76
2022/04/21 11:00:10;;;;;;;;;;;17.50;57.20;;;;;;5051200;28;20346;-75
2022/04/21 11:02:40;;;;;;;;;;;17.30;57.40;;;;;;5051242;28;19909;-75
2022/04/21 11:05:26;;;;;;;;;;;17.20;57.80;;;;;;5049899;28;19913;-76
2022/04/21 11:07:55;;;;;;;;;;;17.00;58.30;;;;;;5051115;28;19904;-75
2022/04/21 11:10:27;;;;;;;;;;;16.80;58.60;;;;;;5051460;28;19905;-74
2022/04/21 11:12:53;;;;;;;;;;;16.80;58.80;;;;;;5051211;28;20374;-75
2022/04/21 11:15:32;;;;;;;;;;;16.80;59.10;;;;;;5049932;28;20015;-75
2022/04/21 11:17:58;;;;;;;;;;;16.70;59.50;;;;;;5050733;28;19909;-75
2022/04/21 11:20:25;;;;;;;;;;;16.60;59.70;;;;;;5051087;28;19913;-76
2022/04/21 11:22:51;;;;;;;;;;;16.50;59.80;;;;;;5050018;28;19905;-75
2022/04/21 11:25:16;;;;;;;;;;;16.50;60.00;;;;;;5051334;28;19915;-74
2022/04/21 11:27:43;;;;;;;;;;;16.50;60.30;;;;;;5049866;28;20297;-75
2022/04/21 11:30:09;;;;;;;;;;;16.50;60.30;;;;;;5050808;28;19908;-75
2022/04/21 11:32:35;;;;;;;;;;;16.50;60.50;;;;;;5050799;28;19916;-75
2022/04/21 11:35:05;;;;;;;;;;;16.50;60.80;;;;;;5050175;28;19916;-76
2022/04/21 11:38:06;;;;;;;;;;;16.40;60.90;;;;;;5053921;28;19925;-75
2022/04/21 11:40:31;;;;;;;;;;;16.40;60.90;;;;;;5032697;28;19920;-75
2022/04/21 11:42:58;;;;;;;;;;;16.40;61.50;;;;;;5050029;28;19917;-75
2022/04/21 11:45:25;;;;;;;;;;;16.40;61.50;;;;;;5054679;28;19931;-76
2022/04/21 11:47:50;;;;;;;;;;;16.30;61.50;;;;;;5054208;28;20246;-76
2022/04/21 11:50:20;;;;;;;;;;;16.20;61.70;;;;;;5053562;28;20299;-76
2022/04/21 11:52:46;;;;;;;;;;;16.20;62.00;;;;;;5053817;28;20378;-77
2022/04/21 11:55:15;;;;;;;;;;;16.20;62.00;;;;;;5053616;28;19925;-76
2022/04/21 11:57:44;;;;;;;;;;;16.30;62.30;;;;;;5054516;28;19935;-75
2022/04/21 12:00:10;;;;;;;;;;;16.20;62.70;;;;;;5053398;28;20341;-75
2022/04/21 12:08:06;;;;;;;;;;;16.00;62.90;;;;;;5054587;28;19920;-73
2022/04/21 12:10:31;;;;;;;;;;;16.10;63.70;;;;;;5054973;28;19947;-75
2022/04/21 12:12:57;;;;;;;;;;;16.10;63.10;;;;;;5054317;28;19936;-75
2022/04/21 12:15:26;;;;;;;;;;;16.10;63.30;;;;;;5054181;28;19909;-75
2022/04/21 12:17:51;;;;;;;;;;;16.10;63.10;;;;;;5054265;28;19909;-75
2022/04/21 12:20:17;;;;;;;;;;;16.00;63.20;;;;;;5054017;28;19917;-74
2022/04/21 12:22:43;;;;;;;;;;;15.90;63.50;;;;;;5054462;28;19912;-75
2022/04/21 12:25:12;;;;;;;;;;;15.80;64.00;;;;;;5053955;28;19927;-75
2022/04/21 12:27:38;;;;;;;;;;;15.90;64.40;;;;;;5053021;28;19917;-75
2022/04/21 12:30:07;;;;;;;;;;;15.90;64.20;;;;;;5052712;28;19917;-74
2022/04/21 12:32:34;;;;;;;;;;;15.80;64.20;;;;;;5053991;28;20339;-75
2022/04/21 12:35:01;;;;;;;;;;;15.70;64.50;;;;;;5053738;28;19940;-75
2022/04/21 12:37:28;;;;;;;;;;;15.90;64.70;;;;;;5053934;28;20007;-74
2022/04/21 12:39:58;;;;;;;;;;;15.90;65.00;;;;;;5053712;28;19913;-75
2022/04/21 12:42:24;;;;;;;;;;;16.00;64.80;;;;;;5053770;28;20012;-75
2022/04/21 12:44:51;;;;;;;;;;;16.00;64.80;;;;;;5053655;28;20410;-75
2022/04/21 12:47:18;;;;;;;;;;;15.90;64.80;;;;;;5052768;28;19982;-76
2022/04/21 12:49:55;;;;;;;;;;;15.90;64.70;;;;;;5053855;28;19970;-74
2022/04/21 12:52:30;;;;;;;;;;;15.90;64.70;;;;;;5052448;28;19989;-74
2022/04/21 12:54:55;;;;;;;;;;;15.70;64.90;;;;;;5053265;28;19959;-74
2022/04/21 12:57:21;;;;;;;;;;;15.80;65.30;;;;;;5053369;28;19913;-74
2022/04/21 12:59:46;;;;;;;;;;;15.70;65.20;;;;;;5053293;28;19908;-75
2022/04/21 13:02:13;;;;;;;;;;;15.80;65.60;;;;;;5053242;28;20236;-74
2022/04/21 13:04:39;;;;;;;;;;;15.90;65.70;;;;;;5052660;28;19912;-74
2022/04/21 13:07:05;;;;;;;;;;;15.90;65.70;;;;;;5053133;28;19909;-74
2022/04/21 13:09:31;;;;;;;;;;;15.80;65.50;;;;;;5053085;28;19948;-75
2022/04/21 13:11:57;;;;;;;;;;;15.90;65.60;;;;;;5053030;28;19908;-75
2022/04/21 13:14:22;;;;;;;;;;;15.80;65.90;;;;;;5052125;28;19913;-75
2022/04/21 13:16:48;;;;;;;;;;;15.90;65.70;;;;;;5053307;28;19999;-74
2022/04/21 13:19:13;;;;;;;;;;;15.90;66.00;;;;;;5052278;28;19934;-74
2022/04/21 13:21:57;;;;;;;;;;;15.90;65.70;;;;;;5051671;28;19923;-75
2022/04/21 13:24:23;;;;;;;;;;;16.00;65.90;;;;;;5052660;28;20381;-75
2022/04/21 13:26:49;;;;;;;;;;;16.00;65.50;;;;;;5053033;28;20237;-75
2022/04/21 13:29:15;;;;;;;;;;;15.80;65.80;;;;;;5052969;28;19919;-75
2022/04/21 13:34:24;;;;;;;;;;;15.90;65.80;;;;;;5052757;28;19923;-75
2022/04/21 13:36:50;;;;;;;;;;;15.90;65.90;;;;;;5052489;28;19961;-74
2022/04/21 13:39:16;;;;;;;;;;;15.90;66.10;;;;;;5051304;28;20363;-75
2022/04/21 13:41:41;;;;;;;;;;;15.80;66.40;;;;;;5052508;28;20043;-74
2022/04/21 13:44:07;;;;;;;;;;;15.60;66.60;;;;;;5052237;28;20566;-74
2022/04/21 13:46:34;;;;;;;;;;;15.60;66.70;;;;;;5052685;28;20104;-75
2022/04/21 13:48:59;;;;;;;;;;;15.60;67.00;;;;;;5051052;28;20270;-76
2022/04/21 13:51:25;;;;;;;;;;;15.50;67.00;;;;;;5052169;28;19908;-75
2022/04/21 13:53:51;;;;;;;;;;;15.50;67.10;;;;;;5052163;28;20365;-74
2022/04/21 13:56:23;;;;;;;;;;;15.50;67.30;;;;;;5052023;28;20330;-75
2022/04/21 13:58:49;;;;;;;;;;;15.40;67.30;;;;;;5052155;28;19915;-74
2022/04/21 14:01:18;;;;;;;;;;;15.30;67.80;;;;;;5052462;28;19904;-74
2022/04/21 14:03:44;;;;;;;;;;;15.30;68.40;;;;;;5051974;28;20012;-75
2022/04/21 14:06:18;;;;;;;;;;;15.30;68.00;;;;;;5051791;28;20008;-74
2022/04/21 14:08:44;;;;;;;;;;;15.30;68.90;;;;;;5051988;28;20202;-75
2022/04/21 14:11:14;;;;;;;;;;;15.30;68.40;;;;;;5052033;28;20024;-74
2022/04/21 14:13:40;;;;;;;;;;;15.50;68.60;;;;;;5052187;28;20418;-74
2022/04/21 14:16:05;;;;;;;;;;;15.50;68.30;;;;;;5050871;28;20256;-75
2022/04/21 14:18:31;;;;;;;;;;;15.60;68.30;;;;;;5051719;28;19935;-75
2022/04/21 14:20:56;;;;;;;;;;;15.60;68.40;;;;;;5051908;28;20330;-74
2022/04/21 14:23:23;;;;;;;;;;;15.50;67.50;;;;;;5051822;28;19908;-74
2022/04/21 14:25:49;;;;;;;;;;;15.50;67.90;;;;;;5051414;28;20710;-74
2022/04/21 14:28:15;;;;;;;;;;;15.50;68.20;;;;;;5051966;28;20014;-74
2022/04/21 14:30:40;;;;;;;;;;;15.50;68.30;;;;;;5050537;28;19959;-74
2022/04/21 14:33:05;;;;;;;;;;;15.40;68.50;;;;;;5051503;28;19948;-73
2022/04/21 14:35:31;;;;;;;;;;;15.40;68.70;;;;;;5051439;28;19949;-73
2022/04/21 14:46:18;;;;;;;;;;;15.50;69.10;;;;;;5050220;28;20383;-74
2022/04/21 14:48:44;;;;;;;;;;;15.50;69.10;;;;;;5051328;28;19913;-74
2022/04/21 14:51:10;;;;;;;;;;;15.50;69.20;;;;;;5051025;28;19972;-74
2022/04/21 14:53:36;;;;;;;;;;;15.60;69.30;;;;;;5050921;28;20005;-75
2022/04/21 14:56:01;;;;;;;;;;;15.70;69.10;;;;;;5051291;28;19909;-74
2022/04/21 14:58:27;;;;;;;;;;;15.80;69.20;;;;;;5050533;28;19958;-75
2022/04/21 15:00:52;;;;;;;;;;;15.90;69.20;;;;;;5051118;28;19908;-75
2022/04/21 15:03:18;;;;;;;;;;;16.00;68.80;;;;;;5049988;28;20392;-75
2022/04/21 15:05:44;;;;;;;;;;;16.10;68.60;;;;;;5051147;28;20528;-76
2022/04/21 15:08:09;;;;;;;;;;;16.20;68.20;;;;;;5051126;28;19909;-75
2022/04/21 15:10:40;;;;;;;;;;;16.20;68.00;;;;;;5054562;28;19905;-76
2022/04/21 15:13:08;;;;;;;;;;;16.30;67.70;;;;;;5057664;28;20323;-74
2022/04/21 15:15:40;;;;;;;;;;;16.20;66.90;;;;;;5057762;28;20078;-75
2022/04/21 15:18:06;;;;;;;;;;;16.20;66.70;;;;;;5057661;28;19912;-76
2022/04/21 15:23:34;;;;;;;;;;;16.10;65.20;;;;;;5055076;28;19955;-75
2022/04/21 15:26:00;;;;;;;;;;;16.00;64.50;;;;;;5054467;28;19952;-76
2022/04/21 15:28:26;;;;;;;;;;;15.90;63.70;;;;;;5057845;28;19912;-75
2022/04/21 15:30:52;;;;;;;;;;;15.90;63.70;;;;;;5057363;28;20334;-76
2022/04/21 15:33:18;;;;;;;;;;;15.80;63.50;;;;;;5057301;28;19908;-76
2022/04/21 15:35:44;;;;;;;;;;;15.80;63.60;;;;;;5057538;28;20247;-75